Time;durP1;ratioP1;P1;durP2;ratioP2;P2;SDS_P1;SDS_P2;PMS_P1;PMS_P2;Temp;Humidity;BMP_temperature;BMP_pressure;BME280_temperature;BME280_humidity;BME280_pressure;Samples;Min_cycle;Max_cycle;Signal;HPM_P1;HPM_P2
2022/04/20 00:01:43;;;;;;;1.70;1.47;;;9.80;87.80;;;10.74;58.45;97848.41;4960324;28;20461;-74
2022/04/20 00:04:13;;;;;;;4.07;1.60;;;9.90;87.40;;;10.66;58.87;97849.38;4958584;28;20929;-75
2022/04/20 00:06:43;;;;;;;4.13;1.87;;;9.80;87.90;;;10.65;59.23;97849.56;4960638;28;20508;-75
2022/04/20 00:09:14;;;;;;;3.10;1.67;;;9.80;88.00;;;10.60;59.26;97848.34;4959519;28;20974;-75
2022/04/20 00:11:46;;;;;;;3.63;1.70;;;9.80;88.00;;;10.52;59.87;97851.09;4959862;28;20911;-75
2022/04/20 00:14:15;;;;;;;2.00;1.70;;;9.70;88.30;;;10.48;60.45;97847.25;4960234;28;20457;-75
2022/04/20 00:16:46;;;;;;;1.60;1.27;;;9.60;89.50;;;10.43;60.75;97852.25;4961192;28;20485;-75
2022/04/20 00:19:16;;;;;;;5.20;1.67;;;9.70;89.30;;;10.36;61.15;97854.00;4958843;28;20465;-75
2022/04/20 00:21:46;;;;;;;2.67;1.67;;;9.40;89.70;;;10.31;61.27;97845.91;4960790;28;20466;-75
2022/04/20 00:24:17;;;;;;;3.50;1.23;;;9.40;89.60;;;10.29;61.31;97855.75;4958718;28;20504;-75
2022/04/20 00:26:49;;;;;;;3.13;1.87;;;9.40;89.50;;;10.23;61.84;97846.06;4959582;28;20507;-75
2022/04/20 00:29:20;;;;;;;1.80;1.30;;;9.30;90.00;;;10.23;61.71;97848.69;4960427;28;20500;-75
2022/04/20 00:31:51;;;;;;;2.70;1.80;;;9.30;89.90;;;10.19;62.13;97844.03;4959863;28;20505;-76
2022/04/20 00:34:20;;;;;;;2.80;1.70;;;9.30;90.20;;;10.16;62.15;97850.44;4958931;28;20458;-75
2022/04/20 00:36:55;;;;;;;4.53;1.57;;;9.20;90.20;;;10.08;62.70;97853.16;4958439;28;20468;-75
2022/04/20 00:39:26;;;;;;;2.13;1.50;;;9.00;90.40;;;10.04;63.40;97849.28;4959997;28;21572;-75
2022/04/20 00:41:58;;;;;;;2.20;1.60;;;8.90;90.60;;;10.01;63.40;97845.25;4960648;28;20828;-75
2022/04/20 00:44:28;;;;;;;1.80;1.40;;;8.90;90.70;;;9.95;63.29;97850.44;4959705;28;20464;-75
2022/04/20 00:47:00;;;;;;;1.90;1.60;;;9.00;90.40;;;9.93;63.94;97845.38;4956878;28;20466;-74
2022/04/20 00:49:31;;;;;;;7.80;1.83;;;8.80;90.70;;;9.90;63.78;97845.75;4959323;28;20460;-75
2022/04/20 00:52:07;;;;;;;2.70;1.70;;;8.90;90.50;;;9.83;64.00;97849.31;4963030;28;20499;-75
2022/04/20 00:54:38;;;;;;;3.43;1.67;;;9.00;90.40;;;9.75;64.39;97857.28;4960629;28;21163;-74
2022/04/20 00:57:12;;;;;;;2.83;1.40;;;8.90;90.40;;;9.67;64.44;97852.16;4963281;28;20497;-75
2022/04/20 00:59:43;;;;;;;4.77;1.70;;;8.70;90.50;;;9.68;64.62;97851.19;4965570;28;20473;-74
2022/04/20 01:02:12;;;;;;;3.23;1.50;;;8.70;90.60;;;9.66;64.78;97847.94;4963306;28;20471;-75
2022/04/20 01:04:44;;;;;;;3.40;1.80;;;8.80;90.50;;;9.60;65.28;97847.69;4965161;28;20464;-75
2022/04/20 01:07:16;;;;;;;2.00;1.57;;;8.80;90.90;;;9.60;65.95;97855.53;4962657;28;20465;-75
2022/04/20 01:09:46;;;;;;;2.07;1.60;;;8.60;91.30;;;9.56;66.04;97853.47;4963102;28;20469;-75
2022/04/20 01:12:21;;;;;;;4.33;2.10;;;8.70;90.80;;;9.54;66.59;97851.03;4962580;28;20564;-75
2022/04/20 01:14:51;;;;;;;3.07;1.80;;;8.60;91.30;;;9.42;67.08;97852.53;4962094;28;20555;-75
2022/04/20 01:17:21;;;;;;;2.50;1.80;;;8.40;91.30;;;9.40;67.47;97851.91;4962911;28;21030;-74
2022/04/20 01:19:50;;;;;;;2.23;1.67;;;8.50;91.50;;;9.41;67.53;97850.91;4962862;28;20469;-74
2022/04/20 01:22:22;;;;;;;2.13;1.23;;;8.40;91.50;;;9.36;67.22;97847.22;4960543;28;20538;-75
2022/04/20 01:24:52;;;;;;;2.00;1.50;;;8.40;91.20;;;9.35;67.11;97856.03;4963361;28;20480;-75
2022/04/20 01:27:24;;;;;;;3.10;1.70;;;8.30;91.30;;;9.27;67.07;97849.13;4965323;28;20546;-75
2022/04/20 01:29:54;;;;;;;2.70;1.70;;;8.30;91.20;;;9.26;67.37;97850.13;4963651;28;20544;-75
2022/04/20 01:32:25;;;;;;;3.40;1.87;;;8.20;91.20;;;9.22;67.29;97853.28;4962896;28;20983;-75
2022/04/20 01:34:54;;;;;;;2.57;1.73;;;8.30;91.20;;;9.18;67.49;97855.44;4964574;28;20456;-75
2022/04/20 01:37:28;;;;;;;2.10;1.60;;;8.20;91.30;;;9.19;67.70;97843.22;4977007;28;20473;-75
2022/04/20 01:39:59;;;;;;;1.93;1.50;;;8.10;91.70;;;9.13;68.22;97841.34;4964866;28;20456;-75
2022/04/20 01:42:30;;;;;;;4.67;1.60;;;8.10;91.60;;;9.07;67.88;97845.47;4963495;28;20584;-74
2022/04/20 01:45:01;;;;;;;3.20;1.73;;;8.10;91.20;;;9.03;68.53;97841.63;4964705;28;20508;-75
2022/04/20 01:47:31;;;;;;;4.07;1.87;;;8.00;91.40;;;8.91;68.38;97840.47;4961484;28;21176;-75
2022/04/20 01:50:01;;;;;;;2.80;2.00;;;8.00;91.30;;;8.81;68.85;97847.78;4962175;28;20877;-75
2022/04/20 01:52:32;;;;;;;1.87;1.53;;;7.90;91.50;;;8.77;69.01;97847.31;4959061;28;21099;-75
2022/04/20 01:55:02;;;;;;;2.60;1.40;;;7.90;91.60;;;8.79;69.61;97839.28;4962286;28;20543;-74
2022/04/20 01:57:33;;;;;;;1.90;1.70;;;7.80;91.80;;;8.83;69.85;97835.34;4963280;28;20458;-75
2022/04/20 02:00:02;;;;;;;3.00;1.60;;;7.80;91.80;;;8.79;70.12;97834.91;4962416;28;20461;-75
2022/04/20 02:02:38;;;;;;;2.90;1.47;;;7.80;92.00;;;8.76;70.58;97843.09;4963976;28;21072;-75
2022/04/20 02:05:11;;;;;;;4.13;1.53;;;7.70;92.00;;;8.73;70.78;97842.63;4961543;28;20468;-74
2022/04/20 02:07:42;;;;;;;2.90;1.47;;;7.70;92.10;;;8.65;70.64;97838.31;4961465;28;20461;-75
2022/04/20 02:10:12;;;;;;;2.60;1.80;;;7.70;91.90;;;8.53;71.73;97840.59;4960877;28;20485;-75
2022/04/20 02:12:42;;;;;;;2.60;1.57;;;7.70;91.90;;;8.41;72.79;97836.78;4961343;28;20563;-74
2022/04/20 02:15:11;;;;;;;4.10;1.83;;;7.50;92.30;;;8.42;72.51;97838.41;4959436;28;20480;-75
2022/04/20 02:17:41;;;;;;;8.53;1.70;;;7.50;92.20;;;8.41;72.97;97839.38;4960935;28;20473;-74
2022/04/20 02:20:10;;;;;;;2.93;1.50;;;7.40;92.40;;;8.41;72.70;97849.81;4961708;28;20465;-74
2022/04/20 02:22:41;;;;;;;6.00;1.47;;;7.40;92.40;;;8.40;73.52;97850.00;4962262;28;21058;-75
2022/04/20 02:25:10;;;;;;;3.23;1.70;;;7.40;92.40;;;8.30;73.53;97854.63;4959358;28;20510;-74
2022/04/20 02:27:40;;;;;;;3.43;2.20;;;7.30;92.50;;;8.30;74.23;97857.22;4963687;28;20484;-74
2022/04/20 02:30:11;;;;;;;3.60;1.70;;;7.20;92.70;;;8.28;73.71;97856.59;4963081;28;20470;-74
2022/04/20 02:32:42;;;;;;;1.80;1.23;;;7.30;92.30;;;8.24;74.20;97852.72;4961139;28;20538;-75
2022/04/20 02:35:12;;;;;;;5.20;1.80;;;7.30;92.60;;;8.20;74.07;97854.03;4959712;28;20465;-75
2022/04/20 02:37:44;;;;;;;1.73;1.40;;;7.20;92.50;;;8.17;74.14;97857.81;4961120;28;20817;-74
2022/04/20 02:40:14;;;;;;;4.90;1.70;;;7.20;92.60;;;8.15;74.79;97857.19;4961880;28;20480;-75
2022/04/20 02:42:45;;;;;;;6.40;1.93;;;7.20;92.80;;;8.15;75.01;97853.78;4962370;28;20527;-74
2022/04/20 02:45:16;;;;;;;2.70;1.70;;;7.10;92.80;;;8.09;74.72;97847.47;4965103;28;20449;-75
2022/04/20 02:47:45;;;;;;;2.60;1.80;;;7.10;92.60;;;8.08;75.48;97851.06;4961064;28;21150;-74
2022/04/20 02:50:15;;;;;;;1.60;1.40;;;7.00;92.90;;;8.01;76.88;97850.16;4961838;28;20454;-75
2022/04/20 02:52:46;;;;;;;4.37;1.80;;;6.80;93.10;;;7.96;76.30;97855.88;4963004;28;20528;-75
2022/04/20 02:55:17;;;;;;;2.40;1.90;;;6.90;93.10;;;7.93;76.39;97852.81;4962245;28;20477;-74
2022/04/20 02:57:46;;;;;;;3.43;1.80;;;6.90;93.00;;;7.93;76.87;97852.81;4963268;28;20508;-75
2022/04/20 03:00:17;;;;;;;2.07;1.60;;;6.90;93.00;;;7.90;76.52;97853.97;4961729;28;20475;-75
2022/04/20 03:02:47;;;;;;;2.23;1.67;;;6.80;93.30;;;7.85;76.94;97843.28;4961785;28;20468;-75
2022/04/20 03:05:16;;;;;;;2.87;2.10;;;6.90;93.00;;;7.84;76.99;97853.88;4961135;28;20545;-74
2022/04/20 03:07:48;;;;;;;7.80;2.40;;;6.80;93.10;;;7.80;77.32;97857.81;4958918;28;20476;-75
2022/04/20 03:10:18;;;;;;;1.80;1.60;;;6.70;93.20;;;7.71;78.20;97864.03;4962069;28;20978;-85
2022/04/20 03:12:49;;;;;;;5.13;1.73;;;6.70;93.20;;;7.68;78.00;97859.19;4959336;28;20480;-74
2022/04/20 03:15:19;;;;;;;5.80;1.73;;;6.80;93.40;;;7.62;78.25;97860.69;4961012;28;20525;-75
2022/04/20 03:17:48;;;;;;;4.27;1.80;;;6.80;93.10;;;7.64;78.99;97857.91;4961722;28;20475;-75
2022/04/20 03:20:18;;;;;;;3.03;1.73;;;6.60;93.40;;;7.58;78.68;97864.63;4960554;28;20580;-82
2022/04/20 03:22:50;;;;;;;2.43;1.70;;;6.70;93.30;;;7.53;79.11;97865.13;4960715;28;20473;-74
2022/04/20 03:25:20;;;;;;;2.53;1.90;;;6.60;93.20;;;7.48;79.16;97864.84;4959595;28;20471;-74
2022/04/20 03:27:48;;;;;;;10.63;1.67;;;6.60;93.30;;;7.45;79.21;97865.19;4960965;28;20544;-75
2022/04/20 03:30:18;;;;;;;3.20;1.93;;;6.60;93.40;;;7.39;79.55;97868.47;4962245;28;20516;-76
2022/04/20 03:32:47;;;;;;;3.63;2.00;;;6.50;93.40;;;7.30;79.96;97869.50;4961159;28;20494;-74
2022/04/20 03:35:17;;;;;;;1.70;1.40;;;6.40;93.50;;;7.30;80.42;97872.09;4961960;28;21046;-75
2022/04/20 03:37:49;;;;;;;4.57;1.73;;;6.40;93.50;;;7.18;80.65;97868.28;4961381;28;20470;-74
2022/04/20 03:40:20;;;;;;;6.40;1.67;;;6.40;93.40;;;7.17;81.79;97871.84;4961868;28;20481;-75
2022/04/20 03:42:48;;;;;;;5.73;3.30;;;6.30;93.70;;;7.19;81.73;97869.88;4961141;28;21308;-81
2022/04/20 03:45:19;;;;;;;6.23;2.00;;;6.30;93.60;;;7.08;82.26;97870.25;4959692;28;20467;-74
2022/04/20 03:47:49;;;;;;;4.53;1.90;;;6.20;93.80;;;7.04;81.61;97872.41;4960026;28;21020;-75
2022/04/20 03:50:19;;;;;;;3.20;1.93;;;6.10;94.00;;;7.02;82.05;97878.72;4958617;28;20462;-74
2022/04/20 03:52:50;;;;;;;3.83;2.10;;;6.20;93.80;;;7.04;82.96;97876.78;4961560;28;20539;-74
2022/04/20 03:55:21;;;;;;;2.13;1.90;;;6.10;94.00;;;7.00;81.95;97875.50;4959217;28;20462;-75
2022/04/20 03:57:50;;;;;;;3.13;2.20;;;6.10;94.00;;;7.01;82.57;97874.53;4959066;28;20537;-75
2022/04/20 04:00:23;;;;;;;3.30;2.00;;;6.10;93.90;;;6.92;82.45;97875.50;4959311;28;20468;-75
2022/04/20 04:02:53;;;;;;;3.73;3.07;;;6.10;93.90;;;6.83;83.37;97868.72;4963451;28;20468;-74
2022/04/20 04:05:22;;;;;;;2.43;1.70;;;5.90;94.30;;;6.80;84.34;97874.28;4958922;28;20510;-74
2022/04/20 04:07:52;;;;;;;2.87;1.60;;;5.80;94.40;;;6.71;84.37;97880.44;4960626;28;20597;-75
2022/04/20 04:10:21;;;;;;;2.27;1.70;;;5.80;94.20;;;6.65;84.90;97875.94;4960018;28;20516;-80
2022/04/20 04:12:52;;;;;;;6.40;2.30;;;5.70;94.40;;;6.69;84.75;97872.84;4961163;28;20566;-74
2022/04/20 04:15:22;;;;;;;4.47;1.93;;;5.80;94.40;;;6.68;84.87;97875.59;4960633;28;20482;-74
2022/04/20 04:17:54;;;;;;;3.10;1.90;;;5.80;94.10;;;6.63;85.40;97880.50;4961762;28;20454;-74
2022/04/20 04:20:23;;;;;;;7.67;2.13;;;5.70;94.50;;;6.61;85.70;97877.22;4959505;28;20876;-80
2022/04/20 04:22:54;;;;;;;3.50;1.90;;;5.70;94.50;;;6.55;85.60;97879.53;4960532;28;20498;-74
2022/04/20 04:25:24;;;;;;;2.77;2.00;;;5.70;94.20;;;6.49;86.16;97881.97;4959021;28;20479;-74
2022/04/20 04:27:54;;;;;;;27.33;11.30;;;5.80;94.20;;;6.48;86.31;97891.56;4962346;28;20526;-74
2022/04/20 04:30:26;;;;;;;7.53;2.00;;;5.70;94.40;;;6.52;86.61;97886.84;4961729;28;21150;-75
2022/04/20 04:32:55;;;;;;;2.87;2.10;;;5.60;94.60;;;6.54;86.54;97893.47;4959376;28;20496;-75
2022/04/20 04:35:26;;;;;;;2.23;1.80;;;5.60;94.60;;;6.53;86.31;97891.84;4960141;28;20461;-75
2022/04/20 04:37:58;;;;;;;5.30;3.20;;;5.60;94.70;;;6.50;86.22;97891.38;4960684;28;20470;-74
2022/04/20 04:40:26;;;;;;;7.57;4.47;;;5.60;94.80;;;6.42;87.65;97894.78;4959835;28;20469;-75
2022/04/20 04:42:57;;;;;;;3.13;2.40;;;5.50;95.00;;;6.35;88.07;97901.59;4962376;28;20669;-75
2022/04/20 04:50:59;;;;;;;3.93;2.00;;;5.40;94.80;;;6.16;89.06;97896.78;4963372;28;20461;-75
2022/04/20 04:53:29;;;;;;;4.63;2.07;;;5.40;95.20;;;6.19;89.11;97898.22;4962276;28;20488;-75
2022/04/20 04:56:07;;;;;;;2.47;1.90;;;5.30;95.20;;;6.15;89.36;97897.75;4961814;28;20457;-75
2022/04/20 04:58:38;;;;;;;2.80;1.90;;;5.30;95.20;;;6.15;89.01;97902.94;4962135;28;21119;-75
2022/04/20 05:01:08;;;;;;;3.07;1.90;;;5.30;95.20;;;6.15;89.62;97905.53;4962282;28;20450;-75
2022/04/20 05:03:38;;;;;;;3.80;1.60;;;5.30;95.40;;;6.20;89.88;97902.44;4963079;28;20836;-75
2022/04/20 05:06:08;;;;;;;3.73;2.43;;;5.20;95.50;;;6.19;89.69;97906.00;4964358;28;20446;-75
2022/04/20 05:08:38;;;;;;;2.40;2.20;;;5.30;95.50;;;6.19;89.60;97900.81;4967523;28;20456;-75
2022/04/20 05:11:09;;;;;;;9.77;2.20;;;5.30;95.50;;;6.19;90.13;97906.81;4965090;28;20449;-75
2022/04/20 05:13:39;;;;;;;5.10;2.40;;;5.30;95.50;;;6.23;89.92;97904.72;4961794;28;20531;-75
2022/04/20 05:16:11;;;;;;;3.87;2.00;;;5.30;95.70;;;6.25;90.04;97906.16;4963829;28;20488;-75
2022/04/20 05:18:40;;;;;;;5.63;2.20;;;5.30;95.60;;;6.25;89.94;97906.16;4963975;28;20955;-74
2022/04/20 05:21:10;;;;;;;9.47;3.03;;;5.30;95.70;;;6.19;90.89;97909.41;4964627;28;20453;-75
2022/04/20 05:23:43;;;;;;;5.40;3.47;;;5.20;96.10;;;6.27;90.98;97912.03;4965326;28;20453;-75
2022/04/20 05:26:13;;;;;;;5.13;2.77;;;5.30;96.10;;;6.28;91.15;97905.84;4965375;28;20912;-75
2022/04/20 05:28:42;;;;;;;5.13;2.10;;;5.30;96.00;;;6.32;90.95;97907.13;4967115;28;20452;-75
2022/04/20 05:31:12;;;;;;;4.00;2.37;;;5.30;96.10;;;6.36;91.29;97905.03;4964992;28;20517;-75
2022/04/20 05:33:42;;;;;;;4.47;2.43;;;5.40;96.00;;;6.34;91.20;97919.97;4966776;28;20500;-75
2022/04/20 05:36:12;;;;;;;4.60;2.20;;;5.40;96.10;;;6.32;92.09;97920.13;4965825;28;20449;-75
2022/04/20 05:41:42;;;;;;;4.40;2.67;;;5.40;96.10;;;6.34;92.42;97905.19;4965418;28;20465;-75
2022/04/20 05:44:13;;;;;;;3.00;2.20;;;5.30;96.30;;;6.31;92.50;97895.16;4969088;28;20440;-75
2022/04/20 05:46:43;;;;;;;3.33;2.50;;;5.50;96.10;;;6.32;93.13;97908.91;4968129;28;20453;-75
2022/04/20 05:49:13;;;;;;;4.10;2.80;;;5.50;96.40;;;6.35;93.76;97904.22;4969304;28;20810;-75
2022/04/20 05:51:42;;;;;;;3.87;2.30;;;5.50;96.40;;;6.41;93.81;97911.38;4969051;28;20928;-75
2022/04/20 05:54:13;;;;;;;9.77;2.10;;;5.60;96.10;;;6.52;93.42;97908.44;4969750;28;20504;-75
2022/04/20 05:56:43;;;;;;;2.80;2.13;;;5.60;96.30;;;6.62;93.31;97899.63;4969290;28;20987;-75
2022/04/20 05:59:13;;;;;;;5.50;2.03;;;5.70;96.00;;;6.71;93.01;97901.22;4965069;28;20953;-75
2022/04/20 06:01:43;;;;;;;10.00;2.50;;;5.80;96.20;;;6.75;91.83;97892.13;4964011;28;20450;-75
2022/04/20 06:04:12;;;;;;;5.10;2.53;;;5.90;95.70;;;6.83;91.94;97899.91;4964061;28;20481;-74
2022/04/20 06:06:43;;;;;;;3.53;2.43;;;5.90;95.70;;;6.88;91.17;97892.41;4966492;28;20529;-75
2022/04/20 06:09:14;;;;;;;2.70;2.23;;;6.00;95.80;;;6.95;90.98;97903.75;4963511;28;20942;-75
2022/04/20 06:11:45;;;;;;;4.97;2.10;;;6.00;95.40;;;6.99;90.26;97895.47;4965684;28;20540;-75
2022/04/20 06:14:16;;;;;;;3.43;2.13;;;6.10;95.50;;;7.06;90.68;97906.81;4968332;28;20532;-75
2022/04/20 06:16:46;;;;;;;4.93;2.70;;;6.10;95.90;;;7.11;90.00;97903.72;4968568;28;20436;-75
2022/04/20 06:19:16;;;;;;;4.03;2.17;;;6.20;95.20;;;7.17;89.54;97908.25;4967147;28;20452;-75
2022/04/20 06:21:46;;;;;;;13.50;2.90;;;6.30;95.20;;;7.26;89.21;97902.00;4967111;28;20453;-75
2022/04/20 06:24:17;;;;;;;3.27;2.47;;;6.40;95.20;;;7.33;87.78;97908.16;4967457;28;20446;-75
2022/04/20 06:26:47;;;;;;;5.90;2.70;;;6.50;94.60;;;7.40;87.00;97898.69;4967696;28;20477;-75
2022/04/20 06:29:16;;;;;;;5.73;2.60;;;6.60;94.50;;;7.47;85.96;97910.03;4968943;28;20471;-75
2022/04/20 06:31:47;;;;;;;3.70;2.70;;;6.60;93.80;;;7.52;83.00;97897.34;4967878;28;21062;-75
2022/04/20 06:34:17;;;;;;;7.23;2.40;;;6.80;93.50;;;7.60;81.74;97909.50;4968703;28;21185;-75
2022/04/20 06:36:47;;;;;;;2.90;2.17;;;6.90;93.10;;;7.63;80.76;97897.94;4969644;28;20519;-75
2022/04/20 06:39:19;;;;;;;8.83;2.33;;;6.90;92.90;;;7.71;81.04;97898.69;4969250;28;20441;-75
2022/04/20 06:41:51;;;;;;;3.43;2.20;;;7.00;92.80;;;7.80;80.56;97897.66;4967872;28;20459;-75
2022/04/20 06:44:20;;;;;;;4.80;2.10;;;7.00;92.70;;;7.89;80.31;97898.41;4966279;28;20445;-75
2022/04/20 06:46:49;;;;;;;9.93;2.20;;;7.10;92.90;;;7.97;79.38;97893.16;4963775;28;20496;-75
2022/04/20 06:49:19;;;;;;;4.20;2.13;;;7.20;92.70;;;8.03;78.73;97895.03;4964171;28;20452;-75
2022/04/20 07:00:15;;;;;;;8.70;2.07;;;7.60;92.20;;;8.27;77.18;97887.03;4967530;28;20453;-75
2022/04/20 07:02:45;;;;;;;3.40;2.40;;;7.60;92.20;;;8.35;76.91;97883.59;4964502;28;21036;-75
2022/04/20 07:05:14;;;;;;;2.40;1.90;;;7.70;92.10;;;8.41;75.80;97881.06;4964675;28;20467;-75
2022/04/20 07:07:44;;;;;;;6.53;2.70;;;7.80;92.10;;;8.48;76.22;97878.56;4962443;28;20446;-75
2022/04/20 07:10:28;;;;;;;9.00;2.57;;;7.90;92.20;;;8.55;75.04;97880.28;4964048;28;20465;-75
2022/04/20 07:12:58;;;;;;;4.50;2.60;;;7.90;91.80;;;8.60;74.50;97874.56;4962467;28;20465;-75
2022/04/20 07:15:28;;;;;;;4.13;2.40;;;8.00;91.70;;;8.68;73.40;97878.88;4964327;28;20847;-75
2022/04/20 07:17:58;;;;;;;2.30;1.90;;;8.10;91.40;;;8.73;71.32;97881.72;4963224;28;20449;-75
2022/04/20 07:20:29;;;;;;;3.53;2.10;;;8.10;90.90;;;8.78;70.70;97874.19;4963623;28;20465;-75
2022/04/20 07:23:00;;;;;;;5.50;2.57;;;8.20;90.60;;;8.84;69.79;97884.72;4963768;28;20457;-75
2022/04/20 07:25:31;;;;;;;5.10;2.30;;;8.20;90.50;;;8.91;68.62;97876.97;4963321;28;20485;-75
2022/04/20 07:28:01;;;;;;;2.80;1.73;;;8.30;90.20;;;8.96;68.70;97887.66;4962826;28;20445;-75
2022/04/20 07:30:32;;;;;;;2.37;1.80;;;8.40;90.30;;;9.05;68.16;97889.22;4963674;28;20473;-75
2022/04/20 07:33:02;;;;;;;2.23;1.80;;;8.40;90.10;;;9.06;66.42;97881.19;4963442;28;20860;-75
2022/04/20 07:35:33;;;;;;;2.70;1.80;;;8.50;89.20;;;9.08;66.45;97878.41;4963786;28;20618;-75
2022/04/20 07:38:03;;;;;;;2.93;1.97;;;8.50;89.50;;;9.13;66.61;97878.66;4964008;28;20467;-75
2022/04/20 07:40:34;;;;;;;3.80;2.47;;;8.50;89.70;;;9.19;66.58;97887.56;4963389;28;20438;-75
2022/04/20 07:43:04;;;;;;;4.30;2.20;;;8.50;89.50;;;9.25;65.26;97885.03;4963259;28;20727;-75
2022/04/20 07:45:33;;;;;;;3.77;1.93;;;8.60;88.90;;;9.28;64.43;97882.06;4965015;28;20464;-75
2022/04/20 07:48:05;;;;;;;4.47;2.27;;;8.70;88.50;;;9.32;63.33;97893.75;4964362;28;20927;-75
2022/04/20 07:50:36;;;;;;;2.77;2.20;;;8.70;87.60;;;9.35;63.56;97890.78;4963986;28;20473;-75
2022/04/20 07:53:08;;;;;;;3.00;2.30;;;8.70;88.60;;;9.42;63.97;97886.44;4962800;28;20843;-75
2022/04/20 07:55:46;;;;;;;2.53;1.83;;;8.70;88.30;;;9.45;61.93;97886.06;4963632;28;21028;-75
2022/04/20 07:58:17;;;;;;;4.40;2.13;;;8.80;86.50;;;9.51;62.19;97893.16;4962754;28;20445;-75
2022/04/20 08:00:51;;;;;;;5.00;2.43;;;8.90;87.30;;;9.60;62.84;97892.06;4965723;28;20475;-75
2022/04/20 08:03:20;;;;;;;5.60;2.57;;;9.00;88.00;;;9.65;61.40;97898.56;4967048;28;20823;-75
2022/04/20 08:05:54;;;;;;;3.87;2.07;;;9.00;86.60;;;9.70;61.48;97888.34;4966295;28;20500;-74
2022/04/20 08:08:25;;;;;;;3.27;2.13;;;9.00;86.80;;;9.77;61.93;97886.59;4966601;28;20483;-75
2022/04/20 08:10:57;;;;;;;2.63;1.90;;;9.00;87.40;;;9.82;60.16;97895.50;4966597;28;20552;-75
2022/04/20 08:16:15;;;;;;;7.53;2.10;;;9.10;86.40;;;9.95;60.56;97900.88;4965584;28;20817;-75
2022/04/20 08:18:45;;;;;;;3.83;2.20;;;9.30;86.40;;;10.02;59.55;97880.03;4967914;28;20495;-75
2022/04/20 08:21:19;;;;;;;2.50;2.03;;;9.40;85.80;;;10.04;59.10;97894.50;4962816;28;20984;-75
2022/04/20 08:23:49;;;;;;;2.80;1.93;;;9.40;85.20;;;10.06;58.42;97899.56;4962520;28;20790;-75
2022/04/20 08:26:20;;;;;;;2.90;2.20;;;9.40;85.00;;;10.07;58.03;97898.53;4962597;28;20465;-75
2022/04/20 08:28:50;;;;;;;2.43;1.90;;;9.40;84.50;;;10.08;57.07;97894.94;4962627;28;20442;-75
2022/04/20 08:31:21;;;;;;;2.67;1.90;;;9.40;83.20;;;10.15;56.50;97884.59;4963518;28;20998;-75
2022/04/20 08:33:51;;;;;;;2.67;1.83;;;9.40;83.50;;;10.23;57.58;97893.13;4962479;28;20455;-74
2022/04/20 08:36:21;;;;;;;3.07;1.80;;;9.50;84.30;;;10.31;56.73;97890.34;4961507;28;20500;-75
2022/04/20 08:38:51;;;;;;;4.83;2.07;;;9.70;83.60;;;10.38;57.11;97885.97;4962825;28;21022;-75
2022/04/20 08:41:24;;;;;;;5.00;2.13;;;9.80;83.80;;;10.43;56.10;97885.41;4962739;28;20433;-75
2022/04/20 08:43:57;;;;;;;7.43;2.43;;;9.80;82.90;;;10.44;54.36;97890.47;4961569;28;20442;-75
2022/04/20 08:46:27;;;;;;;5.33;2.27;;;9.90;81.40;;;10.47;55.14;97891.88;4965129;28;20512;-75
2022/04/20 08:48:58;;;;;;;6.80;2.40;;;9.80;82.20;;;10.49;55.59;97887.25;4963800;28;20484;-75
2022/04/20 08:52:37;;;;;;;3.17;2.33;;;9.80;82.70;;;10.56;56.49;97888.13;4966645;28;20862;-75
2022/04/20 08:54:19;;;;;;;3.77;2.40;;;10.00;82.80;;;10.63;56.77;97888.16;4964642;28;20448;-75
2022/04/20 08:59:39;;;;;;;2.70;1.90;;;10.00;79.90;;;10.62;55.08;97879.50;4965448;28;20437;-75
2022/04/20 09:02:13;;;;;;;3.23;2.20;;;10.00;81.70;;;10.69;54.13;97890.03;4964811;28;20468;-75
2022/04/20 09:04:43;;;;;;;3.23;1.97;;;10.10;80.40;;;10.70;52.10;97896.88;4961922;28;20445;-75
2022/04/20 09:07:15;;;;;;;2.80;1.97;;;10.10;78.10;;;10.71;50.40;97882.78;4963187;28;20476;-76
2022/04/20 09:09:45;;;;;;;6.00;2.10;;;10.10;76.30;;;10.73;50.69;97891.25;4961456;28;20457;-75
2022/04/20 09:12:19;;;;;;;5.23;2.20;;;10.20;77.10;;;10.78;50.76;97892.31;4962944;28;20879;-75
2022/04/20 09:14:52;;;;;;;6.00;2.00;;;10.20;77.00;;;10.78;48.99;97886.25;4961088;28;20488;-75
2022/04/20 09:17:24;;;;;;;4.57;1.97;;;10.20;75.20;;;10.76;49.26;97890.88;4964976;28;20448;-75
2022/04/20 09:19:55;;;;;;;4.83;2.80;;;10.20;75.60;;;10.75;49.76;97878.81;4969599;28;20511;-75
2022/04/20 09:22:29;;;;;;;2.73;2.00;;;10.20;76.40;;;10.77;49.27;97879.41;4969988;28;20447;-75
2022/04/20 09:25:07;;;;;;;4.33;2.30;;;10.20;75.40;;;10.83;50.42;97884.69;4969481;28;20469;-75
2022/04/20 09:27:41;;;;;;;2.70;2.07;;;10.30;77.00;;;10.92;50.87;97885.34;4969352;28;20994;-75
2022/04/20 09:30:14;;;;;;;3.00;2.10;;;10.30;77.60;;;10.99;51.44;97883.56;4970522;28;20938;-75
2022/04/20 09:32:45;;;;;;;3.03;2.40;;;10.40;78.20;;;10.98;50.66;97877.53;4970522;28;20453;-75
2022/04/20 09:35:18;;;;;;;5.33;2.27;;;10.40;77.30;;;11.05;50.38;97888.03;4971033;28;20587;-74
2022/04/20 09:38:05;;;;;;;4.70;2.50;;;10.50;77.10;;;11.10;49.68;97881.22;4970937;28;20456;-75
2022/04/20 09:40:38;;;;;;;5.53;2.57;;;10.60;75.90;;;11.16;49.29;97879.63;4971126;28;20472;-75
2022/04/20 09:43:15;;;;;;;2.90;2.27;;;10.60;75.90;;;11.19;48.49;97875.81;4970408;28;20821;-75
2022/04/20 09:45:45;;;;;;;4.37;2.60;;;10.60;75.10;;;11.21;48.55;97874.59;4970363;28;20483;-75
2022/04/20 09:51:12;;;;;;;4.20;2.40;;;10.70;76.50;;;11.29;50.23;97863.97;4965029;28;20441;-75
2022/04/20 09:53:43;;;;;;;8.70;2.67;;;10.70;77.00;;;11.31;49.92;97858.56;4965288;28;20446;-75
2022/04/20 09:56:19;;;;;;;6.67;2.47;;;10.80;77.20;;;11.34;50.05;97856.34;4965678;28;20495;-75
2022/04/20 09:58:59;;;;;;;2.97;2.47;;;10.80;76.90;;;11.35;50.58;97855.31;4964371;28;21172;-75
2022/04/20 10:01:32;;;;;;;4.17;2.50;;;10.70;77.60;;;11.33;50.00;97856.53;4965767;28;20445;-75
2022/04/20 10:04:03;;;;;;;3.77;2.40;;;10.70;77.30;;;11.35;50.66;97860.56;4969357;28;20457;-75
2022/04/20 10:06:33;;;;;;;7.40;2.90;;;10.70;78.00;;;11.33;49.83;97865.19;4969934;28;20492;-75
2022/04/20 10:09:04;;;;;;;3.00;2.37;;;10.70;77.10;;;11.36;50.51;97854.34;4968574;28;20446;-75
2022/04/20 10:11:36;;;;;;;5.70;2.47;;;10.70;77.90;;;11.40;50.41;97855.56;4966821;28;20453;-75
2022/04/20 10:17:01;;;;;;;3.73;2.70;;;10.80;78.00;;;11.47;49.51;97845.91;4968994;28;20496;-75
2022/04/20 10:19:34;;;;;;;5.47;2.60;;;10.80;77.20;;;11.48;49.67;97836.25;4968637;28;20445;-75
2022/04/20 10:22:07;;;;;;;4.30;2.10;;;10.80;77.10;;;11.53;50.14;97837.25;4969191;28;20449;-75
2022/04/20 10:24:46;;;;;;;2.57;2.10;;;10.80;77.40;;;11.63;49.84;97847.34;4967809;28;20449;-75
2022/04/20 10:27:23;;;;;;;3.37;2.50;;;11.00;77.50;;;11.70;49.38;97829.84;4967456;28;20540;-75
2022/04/20 10:30:00;;;;;;;2.90;2.33;;;11.10;76.40;;;11.78;49.08;97841.97;4968812;28;20457;-75
2022/04/20 10:32:46;;;;;;;3.17;2.20;;;11.20;76.40;;;11.81;48.78;97825.84;4967483;28;20460;-75
2022/04/20 10:35:16;;;;;;;4.10;2.23;;;11.20;76.40;;;11.89;49.35;97833.53;4967670;28;20494;-75
2022/04/20 10:38:09;;;;;;;6.53;2.83;;;11.30;76.90;;;11.90;48.54;97822.03;4966317;28;20869;-74
2022/04/20 10:41:05;;;;;;;2.97;2.40;;;11.30;75.90;;;11.99;48.73;97818.22;4964876;28;21043;-75
2022/04/20 10:43:38;;;;;;;3.97;2.33;;;11.30;76.40;;;12.03;48.47;97819.41;4963897;28;20504;-75
2022/04/20 10:46:17;;;;;;;2.30;1.90;;;11.40;75.60;;;12.03;47.86;97803.69;4968858;28;20492;-75
2022/04/20 10:49:00;;;;;;;11.27;2.00;;;11.50;75.20;;;12.08;48.30;97804.69;4969627;28;20449;-75
2022/04/20 10:51:49;;;;;;;3.90;2.67;;;11.50;76.00;;;12.15;46.84;97812.56;4969685;28;20458;-75
2022/04/20 10:54:50;;;;;;;2.60;2.10;;;11.60;74.20;;;12.15;46.51;97806.53;4967437;28;20449;-75
2022/04/20 10:57:35;;;;;;;2.30;1.93;;;11.60;73.60;;;12.09;46.60;97798.44;4966346;28;20495;-74
2022/04/20 11:00:34;;;;;;;3.60;2.43;;;11.50;74.30;;;12.20;47.45;97793.59;4964669;28;20487;-75
2022/04/20 11:03:10;;;;;;;3.63;2.10;;;11.60;75.00;;;12.25;47.04;97796.44;4969926;28;20532;-75
2022/04/20 11:05:53;;;;;;;9.13;2.70;;;11.60;74.60;;;12.23;46.24;97787.94;4968913;28;20976;-75
2022/04/20 11:08:24;;;;;;;3.17;2.40;;;11.60;73.50;;;12.27;46.50;97789.16;4969262;28;20453;-75
2022/04/20 11:20:00;;;;;;;3.63;2.43;;;11.90;71.60;;;12.56;44.33;97788.72;4965106;28;20448;-75
2022/04/20 11:22:30;;;;;;;2.60;1.90;;;12.00;71.40;;;12.63;44.17;97786.88;4967122;28;20480;-75
2022/04/20 11:25:06;;;;;;;4.43;2.73;;;12.10;71.50;;;12.63;43.22;97779.78;4964659;28;21114;-75
2022/04/20 11:27:37;;;;;;;4.87;1.93;;;12.10;70.30;;;12.67;43.07;97782.03;4961764;28;20456;-75